sensor_id;sensor_type;location;lat;lon;timestamp;P1;durP1;ratioP1;P2;durP2;ratioP2
1651;SDS011;823;49.028;8.454;2023-05-07T00:03:48;5.82;;;2.47;;
1651;SDS011;823;49.028;8.454;2023-05-07T00:08:48;7.20;;;2.40;;
1651;SDS011;823;49.028;8.454;2023-05-07T00:13:49;4.60;;;2.10;;
1651;SDS011;823;49.028;8.454;2023-05-07T00:18:49;3.60;;;2.70;;
1651;SDS011;823;49.028;8.454;2023-05-07T00:23:50;6.03;;;2.40;;
1651;SDS011;823;49.028;8.454;2023-05-07T00:28:50;6.32;;;2.50;;
1651;SDS011;823;49.028;8.454;2023-05-07T00:33:50;3.10;;;2.40;;
1651;SDS011;823;49.028;8.454;2023-05-07T00:38:51;3.23;;;2.30;;
1651;SDS011;823;49.028;8.454;2023-05-07T00:43:51;4.80;;;3.30;;
1651;SDS011;823;49.028;8.454;2023-05-07T00:48:52;7.37;;;2.67;;
1651;SDS011;823;49.028;8.454;2023-05-07T00:53:53;5.67;;;2.93;;
1651;SDS011;823;49.028;8.454;2023-05-07T00:58:54;2.83;;;2.37;;
1651;SDS011;823;49.028;8.454;2023-05-07T01:03:55;3.87;;;2.90;;
1651;SDS011;823;49.028;8.454;2023-05-07T01:08:55;4.63;;;2.93;;
1651;SDS011;823;49.028;8.454;2023-05-07T01:13:58;4.10;;;2.60;;
1651;SDS011;823;49.028;8.454;2023-05-07T01:19:00;11.13;;;2.97;;
1651;SDS011;823;49.028;8.454;2023-05-07T01:24:00;5.43;;;3.30;;
1651;SDS011;823;49.028;8.454;2023-05-07T01:29:01;16.97;;;3.97;;
1651;SDS011;823;49.028;8.454;2023-05-07T01:34:01;5.88;;;3.05;;
1651;SDS011;823;49.028;8.454;2023-05-07T01:39:05;6.27;;;3.20;;
1651;SDS011;823;49.028;8.454;2023-05-07T01:44:06;5.80;;;3.03;;
1651;SDS011;823;49.028;8.454;2023-05-07T01:49:08;5.00;;;2.60;;
1651;SDS011;823;49.028;8.454;2023-05-07T01:54:09;4.47;;;2.80;;
1651;SDS011;823;49.028;8.454;2023-05-07T01:59:09;5.03;;;2.90;;
1651;SDS011;823;49.028;8.454;2023-05-07T02:04:10;4.43;;;2.70;;
1651;SDS011;823;49.028;8.454;2023-05-07T02:09:11;4.65;;;3.00;;
1651;SDS011;823;49.028;8.454;2023-05-07T02:14:11;8.80;;;3.70;;
1651;SDS011;823;49.028;8.454;2023-05-07T02:19:12;8.23;;;3.40;;
1651;SDS011;823;49.028;8.454;2023-05-07T02:24:12;8.77;;;3.17;;
1651;SDS011;823;49.028;8.454;2023-05-07T02:29:12;6.80;;;3.03;;
1651;SDS011;823;49.028;8.454;2023-05-07T02:34:13;6.73;;;2.50;;
1651;SDS011;823;49.028;8.454;2023-05-07T02:39:13;5.43;;;3.43;;
1651;SDS011;823;49.028;8.454;2023-05-07T02:44:13;6.80;;;3.20;;
1651;SDS011;823;49.028;8.454;2023-05-07T02:49:14;5.45;;;3.20;;
1651;SDS011;823;49.028;8.454;2023-05-07T02:54:14;3.90;;;2.80;;
1651;SDS011;823;49.028;8.454;2023-05-07T02:59:15;3.85;;;2.65;;
1651;SDS011;823;49.028;8.454;2023-05-07T03:04:15;6.90;;;3.17;;
1651;SDS011;823;49.028;8.454;2023-05-07T03:09:15;5.17;;;3.00;;
1651;SDS011;823;49.028;8.454;2023-05-07T03:14:16;7.50;;;3.27;;
1651;SDS011;823;49.028;8.454;2023-05-07T03:19:16;8.13;;;2.80;;
1651;SDS011;823;49.028;8.454;2023-05-07T03:24:17;4.43;;;2.60;;
1651;SDS011;823;49.028;8.454;2023-05-07T03:29:17;6.32;;;2.85;;
1651;SDS011;823;49.028;8.454;2023-05-07T03:34:17;8.53;;;3.63;;
1651;SDS011;823;49.028;8.454;2023-05-07T03:39:21;4.70;;;2.40;;
1651;SDS011;823;49.028;8.454;2023-05-07T03:44:22;5.80;;;3.35;;
1651;SDS011;823;49.028;8.454;2023-05-07T03:54:22;5.50;;;3.30;;
1651;SDS011;823;49.028;8.454;2023-05-07T06:04:34;3.72;;;2.65;;
1651;SDS011;823;49.028;8.454;2023-05-07T06:09:35;5.83;;;3.00;;
1651;SDS011;823;49.028;8.454;2023-05-07T06:14:35;3.90;;;2.50;;
1651;SDS011;823;49.028;8.454;2023-05-07T06:19:36;5.13;;;2.80;;
1651;SDS011;823;49.028;8.454;2023-05-07T06:24:36;5.43;;;2.67;;
1651;SDS011;823;49.028;8.454;2023-05-07T06:29:36;3.50;;;2.43;;
1651;SDS011;823;49.028;8.454;2023-05-07T06:34:37;3.22;;;2.17;;
1651;SDS011;823;49.028;8.454;2023-05-07T06:39:37;4.17;;;2.00;;
1651;SDS011;823;49.028;8.454;2023-05-07T06:44:38;2.77;;;1.90;;
1651;SDS011;823;49.028;8.454;2023-05-07T06:49:38;5.20;;;2.25;;
1651;SDS011;823;49.028;8.454;2023-05-07T06:54:38;2.60;;;1.98;;
1651;SDS011;823;49.028;8.454;2023-05-07T06:59:39;3.13;;;2.20;;
1651;SDS011;823;49.028;8.454;2023-05-07T07:04:39;4.20;;;2.03;;
1651;SDS011;823;49.028;8.454;2023-05-07T07:09:40;2.67;;;2.00;;
1651;SDS011;823;49.028;8.454;2023-05-07T07:14:40;3.83;;;2.10;;
1651;SDS011;823;49.028;8.454;2023-05-07T07:19:40;3.65;;;2.17;;
1651;SDS011;823;49.028;8.454;2023-05-07T07:24:41;3.53;;;2.17;;
1651;SDS011;823;49.028;8.454;2023-05-07T07:29:41;2.53;;;1.77;;
1651;SDS011;823;49.028;8.454;2023-05-07T07:34:41;3.17;;;2.13;;
1651;SDS011;823;49.028;8.454;2023-05-07T07:39:42;4.90;;;1.93;;
1651;SDS011;823;49.028;8.454;2023-05-07T07:44:42;2.83;;;1.95;;
1651;SDS011;823;49.028;8.454;2023-05-07T07:49:42;4.40;;;2.60;;
1651;SDS011;823;49.028;8.454;2023-05-07T07:54:43;2.42;;;1.83;;
1651;SDS011;823;49.028;8.454;2023-05-07T07:59:43;4.10;;;2.43;;
1651;SDS011;823;49.028;8.454;2023-05-07T08:04:43;5.03;;;2.00;;
1651;SDS011;823;49.028;8.454;2023-05-07T08:09:44;3.63;;;2.30;;
1651;SDS011;823;49.028;8.454;2023-05-07T08:14:44;3.50;;;2.27;;
1651;SDS011;823;49.028;8.454;2023-05-07T08:19:45;4.15;;;1.80;;
1651;SDS011;823;49.028;8.454;2023-05-07T08:24:45;3.47;;;2.20;;
1651;SDS011;823;49.028;8.454;2023-05-07T08:29:45;5.40;;;2.37;;
1651;SDS011;823;49.028;8.454;2023-05-07T08:34:47;6.83;;;2.20;;
1651;SDS011;823;49.028;8.454;2023-05-07T08:39:48;2.03;;;1.70;;
1651;SDS011;823;49.028;8.454;2023-05-07T08:44:48;3.00;;;1.95;;
1651;SDS011;823;49.028;8.454;2023-05-07T08:49:53;10.40;;;2.10;;
1651;SDS011;823;49.028;8.454;2023-05-07T08:54:54;2.80;;;1.77;;
1651;SDS011;823;49.028;8.454;2023-05-07T08:59:55;5.70;;;2.30;;
1651;SDS011;823;49.028;8.454;2023-05-07T09:04:56;3.47;;;2.50;;
1651;SDS011;823;49.028;8.454;2023-05-07T09:09:56;4.50;;;2.23;;
1651;SDS011;823;49.028;8.454;2023-05-07T09:14:58;4.67;;;2.40;;
1651;SDS011;823;49.028;8.454;2023-05-07T09:20:05;6.00;;;2.20;;
1651;SDS011;823;49.028;8.454;2023-05-07T09:25:06;3.50;;;2.43;;
1651;SDS011;823;49.028;8.454;2023-05-07T09:30:08;2.93;;;2.17;;
1651;SDS011;823;49.028;8.454;2023-05-07T09:35:15;4.47;;;1.97;;
1651;SDS011;823;49.028;8.454;2023-05-07T09:40:23;6.97;;;2.60;;
1651;SDS011;823;49.028;8.454;2023-05-07T09:45:25;3.93;;;2.60;;
1651;SDS011;823;49.028;8.454;2023-05-07T09:50:27;2.43;;;1.90;;
1651;SDS011;823;49.028;8.454;2023-05-07T09:55:30;3.60;;;2.40;;
1651;SDS011;823;49.028;8.454;2023-05-07T10:00:30;3.90;;;2.10;;
1651;SDS011;823;49.028;8.454;2023-05-07T10:05:31;2.80;;;1.90;;
1651;SDS011;823;49.028;8.454;2023-05-07T10:10:32;2.97;;;2.00;;
1651;SDS011;823;49.028;8.454;2023-05-07T10:15:34;1.87;;;1.67;;
1651;SDS011;823;49.028;8.454;2023-05-07T10:20:35;2.93;;;2.07;;
1651;SDS011;823;49.028;8.454;2023-05-07T10:25:37;3.17;;;2.07;;
1651;SDS011;823;49.028;8.454;2023-05-07T10:35:46;6.80;;;3.27;;
1651;SDS011;823;49.028;8.454;2023-05-07T10:40:48;5.00;;;2.50;;
1651;SDS011;823;49.028;8.454;2023-05-07T10:51:18;19.93;;;4.20;;
1651;SDS011;823;49.028;8.454;2023-05-07T11:12:08;5.33;;;2.37;;
1651;SDS011;823;49.028;8.454;2023-05-07T11:17:09;4.40;;;2.50;;
1651;SDS011;823;49.028;8.454;2023-05-07T11:27:32;6.10;;;2.50;;
1651;SDS011;823;49.028;8.454;2023-05-07T11:32:33;5.30;;;2.67;;
1651;SDS011;823;49.028;8.454;2023-05-07T11:37:33;3.60;;;2.40;;
1651;SDS011;823;49.028;8.454;2023-05-07T11:42:35;3.47;;;2.40;;
1651;SDS011;823;49.028;8.454;2023-05-07T11:47:37;3.20;;;2.30;;
1651;SDS011;823;49.028;8.454;2023-05-07T11:52:37;4.67;;;2.30;;
1651;SDS011;823;49.028;8.454;2023-05-07T11:57:39;4.47;;;2.33;;
1651;SDS011;823;49.028;8.454;2023-05-07T12:02:39;6.60;;;2.70;;
1651;SDS011;823;49.028;8.454;2023-05-07T12:07:39;3.40;;;2.67;;
1651;SDS011;823;49.028;8.454;2023-05-07T12:12:45;3.03;;;2.23;;
1651;SDS011;823;49.028;8.454;2023-05-07T12:17:46;6.53;;;2.50;;
1651;SDS011;823;49.028;8.454;2023-05-07T12:22:47;3.20;;;2.10;;
1651;SDS011;823;49.028;8.454;2023-05-07T12:27:53;3.93;;;2.10;;
1651;SDS011;823;49.028;8.454;2023-05-07T12:32:54;6.13;;;2.40;;
1651;SDS011;823;49.028;8.454;2023-05-07T12:37:55;3.20;;;2.27;;
1651;SDS011;823;49.028;8.454;2023-05-07T12:42:56;5.70;;;2.20;;
1651;SDS011;823;49.028;8.454;2023-05-07T12:48:01;5.90;;;2.13;;
1651;SDS011;823;49.028;8.454;2023-05-07T12:53:03;66.07;;;4.47;;
1651;SDS011;823;49.028;8.454;2023-05-07T12:58:06;3.20;;;2.20;;
1651;SDS011;823;49.028;8.454;2023-05-07T13:03:06;3.77;;;2.00;;
1651;SDS011;823;49.028;8.454;2023-05-07T13:08:06;2.20;;;2.00;;
1651;SDS011;823;49.028;8.454;2023-05-07T13:13:09;13.70;;;3.27;;
1651;SDS011;823;49.028;8.454;2023-05-07T13:18:10;5.33;;;2.57;;
1651;SDS011;823;49.028;8.454;2023-05-07T13:23:11;2.70;;;2.30;;
1651;SDS011;823;49.028;8.454;2023-05-07T13:28:11;3.80;;;1.93;;
1651;SDS011;823;49.028;8.454;2023-05-07T13:33:12;5.50;;;1.80;;
1651;SDS011;823;49.028;8.454;2023-05-07T13:38:13;3.43;;;2.23;;
1651;SDS011;823;49.028;8.454;2023-05-07T13:43:15;2.87;;;1.90;;
1651;SDS011;823;49.028;8.454;2023-05-07T13:48:17;9.63;;;2.17;;
1651;SDS011;823;49.028;8.454;2023-05-07T13:53:17;2.38;;;1.70;;
1651;SDS011;823;49.028;8.454;2023-05-07T13:58:18;6.73;;;2.10;;
1651;SDS011;823;49.028;8.454;2023-05-07T14:03:18;3.07;;;2.33;;
1651;SDS011;823;49.028;8.454;2023-05-07T14:08:19;3.67;;;1.33;;
1651;SDS011;823;49.028;8.454;2023-05-07T14:13:20;1.60;;;0.70;;
1651;SDS011;823;49.028;8.454;2023-05-07T14:18:20;1.27;;;0.82;;
1651;SDS011;823;49.028;8.454;2023-05-07T14:23:20;2.03;;;1.03;;
1651;SDS011;823;49.028;8.454;2023-05-07T14:28:26;6.83;;;0.97;;
1651;SDS011;823;49.028;8.454;2023-05-07T14:33:26;3.50;;;0.90;;
1651;SDS011;823;49.028;8.454;2023-05-07T14:38:27;5.20;;;0.87;;
1651;SDS011;823;49.028;8.454;2023-05-07T14:43:27;3.83;;;0.90;;
1651;SDS011;823;49.028;8.454;2023-05-07T14:48:28;2.83;;;1.10;;
1651;SDS011;823;49.028;8.454;2023-05-07T14:53:28;1.77;;;1.00;;
1651;SDS011;823;49.028;8.454;2023-05-07T14:58:28;1.90;;;0.67;;
1651;SDS011;823;49.028;8.454;2023-05-07T15:03:29;2.70;;;1.00;;
1651;SDS011;823;49.028;8.454;2023-05-07T15:08:30;1.40;;;0.80;;
1651;SDS011;823;49.028;8.454;2023-05-07T15:13:30;7.30;;;1.17;;
1651;SDS011;823;49.028;8.454;2023-05-07T15:18:31;2.60;;;0.80;;
1651;SDS011;823;49.028;8.454;2023-05-07T15:23:31;1.20;;;0.68;;
1651;SDS011;823;49.028;8.454;2023-05-07T15:28:31;1.93;;;1.07;;
1651;SDS011;823;49.028;8.454;2023-05-07T15:33:32;2.17;;;1.17;;
1651;SDS011;823;49.028;8.454;2023-05-07T15:38:33;2.13;;;1.20;;
1651;SDS011;823;49.028;8.454;2023-05-07T15:43:34;2.93;;;1.30;;
1651;SDS011;823;49.028;8.454;2023-05-07T15:48:45;2.73;;;1.10;;
1651;SDS011;823;49.028;8.454;2023-05-07T15:53:46;4.20;;;1.40;;
1651;SDS011;823;49.028;8.454;2023-05-07T15:58:46;4.60;;;1.63;;
1651;SDS011;823;49.028;8.454;2023-05-07T16:03:48;3.07;;;1.30;;
1651;SDS011;823;49.028;8.454;2023-05-07T16:08:48;3.40;;;1.50;;
1651;SDS011;823;49.028;8.454;2023-05-07T16:13:48;2.80;;;1.40;;
1651;SDS011;823;49.028;8.454;2023-05-07T16:18:49;2.80;;;1.10;;
1651;SDS011;823;49.028;8.454;2023-05-07T16:23:49;3.00;;;1.50;;
1651;SDS011;823;49.028;8.454;2023-05-07T16:28:50;1.30;;;0.90;;
1651;SDS011;823;49.028;8.454;2023-05-07T16:33:50;5.20;;;2.00;;
1651;SDS011;823;49.028;8.454;2023-05-07T16:38:51;3.75;;;1.77;;
1651;SDS011;823;49.028;8.454;2023-05-07T16:43:51;1.93;;;1.57;;
1651;SDS011;823;49.028;8.454;2023-05-07T16:48:52;3.22;;;1.35;;
1651;SDS011;823;49.028;8.454;2023-05-07T16:53:53;3.37;;;1.47;;
1651;SDS011;823;49.028;8.454;2023-05-07T16:58:54;7.87;;;1.67;;
1651;SDS011;823;49.028;8.454;2023-05-07T17:03:54;2.13;;;1.60;;
1651;SDS011;823;49.028;8.454;2023-05-07T17:08:54;2.50;;;1.70;;
1651;SDS011;823;49.028;8.454;2023-05-07T17:13:55;4.03;;;1.53;;
1651;SDS011;823;49.028;8.454;2023-05-07T17:18:55;3.57;;;1.17;;
1651;SDS011;823;49.028;8.454;2023-05-07T17:23:55;2.00;;;1.40;;
1651;SDS011;823;49.028;8.454;2023-05-07T17:28:56;2.33;;;1.50;;
1651;SDS011;823;49.028;8.454;2023-05-07T17:33:56;1.90;;;1.35;;
1651;SDS011;823;49.028;8.454;2023-05-07T17:38:58;2.30;;;2.00;;
1651;SDS011;823;49.028;8.454;2023-05-07T17:43:58;3.33;;;1.37;;
1651;SDS011;823;49.028;8.454;2023-05-07T17:48:58;3.50;;;1.67;;
1651;SDS011;823;49.028;8.454;2023-05-07T17:53:59;3.73;;;1.67;;
1651;SDS011;823;49.028;8.454;2023-05-07T17:58:59;2.33;;;1.50;;
1651;SDS011;823;49.028;8.454;2023-05-07T18:04:01;2.53;;;1.60;;
1651;SDS011;823;49.028;8.454;2023-05-07T18:09:01;2.57;;;1.90;;
1651;SDS011;823;49.028;8.454;2023-05-07T18:14:02;4.93;;;1.73;;
1651;SDS011;823;49.028;8.454;2023-05-07T18:19:02;5.63;;;2.57;;
1651;SDS011;823;49.028;8.454;2023-05-07T18:24:02;11.40;;;2.57;;
1651;SDS011;823;49.028;8.454;2023-05-07T18:29:03;9.03;;;2.50;;
1651;SDS011;823;49.028;8.454;2023-05-07T18:34:04;8.03;;;2.43;;
1651;SDS011;823;49.028;8.454;2023-05-07T18:39:05;5.83;;;2.80;;
1651;SDS011;823;49.028;8.454;2023-05-07T18:44:05;9.70;;;3.47;;
1651;SDS011;823;49.028;8.454;2023-05-07T18:49:06;9.57;;;4.30;;
1651;SDS011;823;49.028;8.454;2023-05-07T18:54:06;7.23;;;3.47;;
1651;SDS011;823;49.028;8.454;2023-05-07T18:59:07;15.48;;;4.53;;
1651;SDS011;823;49.028;8.454;2023-05-07T19:04:07;14.70;;;4.37;;
1651;SDS011;823;49.028;8.454;2023-05-07T19:09:08;11.80;;;4.60;;
1651;SDS011;823;49.028;8.454;2023-05-07T19:14:08;6.53;;;3.83;;
1651;SDS011;823;49.028;8.454;2023-05-07T19:19:09;6.10;;;3.80;;
1651;SDS011;823;49.028;8.454;2023-05-07T19:24:10;7.43;;;3.97;;
1651;SDS011;823;49.028;8.454;2023-05-07T19:29:10;11.90;;;4.45;;
1651;SDS011;823;49.028;8.454;2023-05-07T19:34:10;7.80;;;3.97;;
1651;SDS011;823;49.028;8.454;2023-05-07T19:39:12;8.33;;;5.50;;
1651;SDS011;823;49.028;8.454;2023-05-07T19:44:13;7.60;;;4.03;;
1651;SDS011;823;49.028;8.454;2023-05-07T19:49:14;9.77;;;4.70;;
1651;SDS011;823;49.028;8.454;2023-05-07T19:54:14;8.98;;;5.05;;
1651;SDS011;823;49.028;8.454;2023-05-07T19:59:14;8.70;;;4.70;;
1651;SDS011;823;49.028;8.454;2023-05-07T20:04:15;14.50;;;5.23;;
1651;SDS011;823;49.028;8.454;2023-05-07T20:09:16;10.30;;;5.17;;
1651;SDS011;823;49.028;8.454;2023-05-07T20:14:16;9.30;;;4.88;;
1651;SDS011;823;49.028;8.454;2023-05-07T20:19:17;13.48;;;5.85;;
1651;SDS011;823;49.028;8.454;2023-05-07T20:24:17;12.03;;;6.50;;
1651;SDS011;823;49.028;8.454;2023-05-07T20:29:18;11.50;;;5.90;;
1651;SDS011;823;49.028;8.454;2023-05-07T20:34:18;11.93;;;6.40;;
1651;SDS011;823;49.028;8.454;2023-05-07T20:39:19;8.10;;;5.33;;
1651;SDS011;823;49.028;8.454;2023-05-07T20:44:19;12.90;;;6.20;;
1651;SDS011;823;49.028;8.454;2023-05-07T20:49:19;11.03;;;6.43;;
1651;SDS011;823;49.028;8.454;2023-05-07T20:54:22;11.10;;;6.90;;
1651;SDS011;823;49.028;8.454;2023-05-07T20:59:22;8.07;;;5.57;;
1651;SDS011;823;49.028;8.454;2023-05-07T21:04:23;9.33;;;5.37;;
1651;SDS011;823;49.028;8.454;2023-05-07T21:09:23;10.10;;;5.00;;
1651;SDS011;823;49.028;8.454;2023-05-07T21:14:24;7.13;;;4.67;;
1651;SDS011;823;49.028;8.454;2023-05-07T21:19:25;11.77;;;5.30;;
1651;SDS011;823;49.028;8.454;2023-05-07T21:24:25;7.60;;;5.83;;
1651;SDS011;823;49.028;8.454;2023-05-07T21:29:26;8.60;;;5.23;;
1651;SDS011;823;49.028;8.454;2023-05-07T21:34:26;14.27;;;6.23;;
1651;SDS011;823;49.028;8.454;2023-05-07T21:39:26;13.68;;;6.55;;
1651;SDS011;823;49.028;8.454;2023-05-07T21:44:27;12.75;;;6.85;;
1651;SDS011;823;49.028;8.454;2023-05-07T21:49:28;10.80;;;5.93;;
1651;SDS011;823;49.028;8.454;2023-05-07T21:54:29;10.60;;;6.15;;
1651;SDS011;823;49.028;8.454;2023-05-07T21:59:29;8.13;;;6.25;;
1651;SDS011;823;49.028;8.454;2023-05-07T22:04:30;11.63;;;6.90;;
1651;SDS011;823;49.028;8.454;2023-05-07T22:09:30;9.70;;;5.53;;
1651;SDS011;823;49.028;8.454;2023-05-07T22:14:31;9.07;;;5.47;;
1651;SDS011;823;49.028;8.454;2023-05-07T22:19:31;10.27;;;5.30;;
1651;SDS011;823;49.028;8.454;2023-05-07T22:24:31;8.17;;;4.90;;
1651;SDS011;823;49.028;8.454;2023-05-07T22:29:32;8.23;;;5.70;;
1651;SDS011;823;49.028;8.454;2023-05-07T22:34:32;13.13;;;6.17;;
1651;SDS011;823;49.028;8.454;2023-05-07T22:39:32;11.52;;;6.25;;
1651;SDS011;823;49.028;8.454;2023-05-07T22:44:34;9.80;;;6.50;;
1651;SDS011;823;49.028;8.454;2023-05-07T22:49:34;11.87;;;8.03;;
1651;SDS011;823;49.028;8.454;2023-05-07T22:54:35;11.90;;;7.70;;
1651;SDS011;823;49.028;8.454;2023-05-07T22:59:35;10.93;;;6.63;;
1651;SDS011;823;49.028;8.454;2023-05-07T23:04:35;12.70;;;7.10;;
1651;SDS011;823;49.028;8.454;2023-05-07T23:09:36;12.43;;;7.57;;
1651;SDS011;823;49.028;8.454;2023-05-07T23:14:36;12.90;;;6.87;;
1651;SDS011;823;49.028;8.454;2023-05-07T23:19:37;12.50;;;7.00;;
1651;SDS011;823;49.028;8.454;2023-05-07T23:24:37;11.85;;;6.93;;
1651;SDS011;823;49.028;8.454;2023-05-07T23:29:37;10.70;;;6.80;;
1651;SDS011;823;49.028;8.454;2023-05-07T23:34:38;10.97;;;7.37;;
1651;SDS011;823;49.028;8.454;2023-05-07T23:39:38;12.47;;;7.17;;
1651;SDS011;823;49.028;8.454;2023-05-07T23:44:39;9.63;;;6.80;;
1651;SDS011;823;49.028;8.454;2023-05-07T23:49:39;10.95;;;6.70;;
1651;SDS011;823;49.028;8.454;2023-05-07T23:54:40;11.40;;;7.30;;
1651;SDS011;823;49.028;8.454;2023-05-07T23:59:40;11.00;;;7.13;;
